Terminal Aerodrome Forecast
Issued by NWS Sioux Falls, SD

Home | Current Version | Previous Version | Text Only | Print | Product List | Glossary On
Versions: 1 2 3 4 5 6 7 8 9 10 11 12
000
FTUS43 KFSD 021120
TAFHON
TAF
KHON 021120Z 0212/0312 15016G23KT P6SM BKN150
     FM021500 17018G27KT P6SM BKN250
     FM022100 17016G25KT P6SM SCT040 SCT250
     FM030100 18012KT P6SM VCTS BKN050CB
     FM030800 20007KT P6SM BKN100=

USA.gov is the U.S. government's official web portal to all federal, state and local government web resources and services.